createdAt,value
2022-12-03T00:00:43.815Z,0.00
2022-12-03T00:01:43.820Z,0.00
2022-12-03T00:02:43.978Z,0.00
2022-12-03T00:03:44.306Z,0.00
2022-12-03T00:04:43.808Z,0.00
2022-12-03T00:05:48.898Z,0.00
2022-12-03T00:06:43.765Z,0.00
2022-12-03T00:07:43.781Z,0.00
2022-12-03T00:08:43.699Z,0.00
2022-12-03T00:09:43.756Z,0.00
2022-12-03T00:10:43.691Z,0.00
2022-12-03T00:11:43.686Z,0.00
2022-12-03T00:12:43.699Z,0.00
2022-12-03T00:13:43.658Z,0.00
2022-12-03T00:14:44.964Z,0.00
2022-12-03T00:15:43.684Z,0.00
2022-12-03T00:16:43.643Z,0.00
2022-12-03T00:17:43.589Z,0.00
2022-12-03T00:18:43.576Z,0.00
2022-12-03T00:19:43.590Z,0.00
2022-12-03T00:20:43.586Z,0.00
2022-12-03T00:21:43.643Z,0.00
2022-12-03T00:22:43.581Z,0.00
2022-12-03T00:23:43.539Z,0.00
2022-12-03T00:24:43.516Z,0.00
2022-12-03T00:25:43.514Z,0.00
2022-12-03T00:26:43.515Z,0.00
2022-12-03T00:27:43.498Z,0.00
2022-12-03T00:28:43.521Z,0.00
2022-12-03T00:29:43.463Z,0.00
2022-12-03T00:30:43.531Z,0.00
2022-12-03T00:31:43.499Z,0.00
2022-12-03T00:32:43.579Z,0.00
2022-12-03T00:33:43.474Z,0.00
2022-12-03T00:34:43.398Z,0.00
2022-12-03T00:35:43.395Z,0.00
2022-12-03T00:36:43.423Z,0.00
2022-12-03T00:37:43.403Z,0.00
2022-12-03T00:38:43.370Z,0.00
2022-12-03T00:39:43.363Z,0.00
2022-12-03T00:40:43.454Z,0.00
2022-12-03T00:41:43.386Z,0.00
2022-12-03T00:42:43.391Z,0.00
2022-12-03T00:43:43.390Z,0.00
2022-12-03T00:44:43.311Z,0.00
2022-12-03T00:45:43.330Z,0.00
2022-12-03T00:46:43.334Z,0.00
2022-12-03T00:47:43.275Z,0.00
2022-12-03T00:48:43.293Z,0.00
2022-12-03T00:49:43.225Z,0.00
2022-12-03T00:50:43.268Z,0.00
2022-12-03T00:51:43.209Z,0.00
2022-12-03T00:52:43.200Z,0.00
2022-12-03T00:53:43.224Z,0.00
2022-12-03T00:54:43.182Z,0.00
2022-12-03T00:55:43.146Z,0.00
2022-12-03T00:56:43.196Z,0.00
2022-12-03T00:57:43.249Z,0.00
2022-12-03T00:58:43.177Z,0.00
2022-12-03T00:59:43.111Z,0.00
2022-12-03T01:00:43.205Z,0.00
2022-12-03T01:01:43.131Z,0.00
2022-12-03T01:02:43.079Z,0.00
2022-12-03T01:03:43.100Z,0.00
2022-12-03T01:04:43.263Z,0.00
2022-12-03T01:05:43.071Z,0.00
2022-12-03T01:06:43.040Z,0.00
2022-12-03T01:07:43.061Z,0.00
2022-12-03T01:08:43.063Z,0.00
2022-12-03T01:09:43.034Z,0.00
2022-12-03T01:10:43.005Z,0.00
2022-12-03T01:11:42.983Z,0.00
2022-12-03T01:12:43.035Z,0.00
2022-12-03T01:13:43.117Z,0.00
2022-12-03T01:14:43.031Z,0.00
2022-12-03T01:15:43.064Z,0.00
2022-12-03T01:16:42.968Z,0.00
2022-12-03T01:17:42.921Z,0.00
2022-12-03T01:18:43.014Z,0.00
2022-12-03T01:19:48.002Z,0.00
2022-12-03T01:20:42.900Z,0.00
2022-12-03T01:21:42.888Z,0.00
2022-12-03T01:22:42.897Z,0.00
2022-12-03T01:23:42.900Z,0.00
2022-12-03T01:24:42.910Z,0.00
2022-12-03T01:25:42.817Z,0.00
2022-12-03T01:26:42.834Z,0.00
2022-12-03T01:27:42.805Z,0.00
2022-12-03T01:28:42.828Z,0.00
2022-12-03T01:29:42.805Z,0.00
2022-12-03T01:30:42.790Z,0.00
2022-12-03T01:31:42.818Z,0.00
2022-12-03T01:32:43.035Z,0.00
2022-12-03T01:33:42.763Z,0.00
2022-12-03T01:34:42.761Z,0.00
2022-12-03T01:35:42.741Z,0.00
2022-12-03T01:36:42.680Z,0.00
2022-12-03T01:37:42.704Z,0.00
2022-12-03T01:38:42.708Z,0.00
2022-12-03T01:39:42.723Z,0.00
2022-12-03T01:40:42.653Z,0.00
2022-12-03T01:41:42.668Z,0.00
2022-12-03T01:42:42.646Z,0.00
2022-12-03T01:43:42.654Z,0.00
2022-12-03T01:44:42.673Z,0.00
2022-12-03T01:45:42.671Z,0.00
2022-12-03T01:46:42.651Z,0.00
2022-12-03T01:47:42.607Z,0.00
2022-12-03T01:48:42.558Z,0.00
2022-12-03T01:49:42.592Z,0.00
2022-12-03T01:50:42.544Z,0.00
2022-12-03T01:51:42.541Z,0.00
2022-12-03T01:52:42.536Z,0.00
2022-12-03T01:53:42.530Z,0.00
2022-12-03T01:54:42.527Z,0.00
2022-12-03T01:55:45.612Z,0.00
2022-12-03T01:56:42.481Z,0.00
2022-12-03T01:57:42.485Z,0.00
2022-12-03T01:58:42.453Z,0.00
2022-12-03T01:59:42.481Z,0.00
2022-12-03T02:00:42.446Z,0.00
2022-12-03T02:01:42.449Z,0.00
2022-12-03T02:02:42.435Z,0.00
2022-12-03T02:03:42.441Z,0.00
2022-12-03T02:04:42.417Z,0.00
2022-12-03T02:05:42.437Z,0.00
2022-12-03T02:06:42.360Z,0.00
2022-12-03T02:07:42.546Z,0.00
2022-12-03T02:08:42.332Z,0.00
2022-12-03T02:09:42.354Z,0.00
2022-12-03T02:10:42.330Z,0.00
2022-12-03T02:11:42.317Z,0.00
2022-12-03T02:12:42.280Z,0.00
2022-12-03T02:13:42.295Z,0.00
2022-12-03T02:14:42.370Z,0.00
2022-12-03T02:15:42.309Z,0.00
2022-12-03T02:16:43.129Z,0.00
2022-12-03T02:17:42.256Z,0.00
2022-12-03T02:18:42.237Z,0.00
2022-12-03T02:19:42.224Z,0.00
2022-12-03T02:20:42.239Z,0.00
2022-12-03T02:21:42.271Z,0.00
2022-12-03T02:22:42.184Z,0.00
2022-12-03T02:23:42.184Z,0.00
2022-12-03T02:24:42.155Z,0.00
2022-12-03T02:25:42.186Z,0.00
2022-12-03T02:26:42.148Z,0.00
2022-12-03T02:27:42.133Z,0.00
2022-12-03T02:28:42.102Z,0.00
2022-12-03T02:29:42.155Z,0.00
2022-12-03T02:30:42.126Z,0.00
2022-12-03T02:31:42.165Z,0.00
2022-12-03T02:32:42.117Z,0.00
2022-12-03T02:33:42.072Z,0.00
2022-12-03T02:34:42.074Z,0.00
2022-12-03T02:35:42.045Z,0.00
2022-12-03T02:36:42.030Z,0.00
2022-12-03T02:37:42.043Z,0.00
2022-12-03T02:38:42.035Z,0.00
2022-12-03T02:39:42.006Z,0.00
2022-12-03T02:40:42.014Z,0.00
2022-12-03T02:41:42.046Z,0.00
2022-12-03T02:42:41.994Z,0.00
2022-12-03T02:43:41.973Z,0.00
2022-12-03T02:44:41.956Z,0.00
2022-12-03T02:45:41.960Z,0.00
2022-12-03T02:46:42.032Z,0.00
2022-12-03T02:47:41.899Z,0.00
2022-12-03T02:48:41.886Z,0.00
2022-12-03T02:49:41.903Z,0.00
2022-12-03T02:50:41.875Z,0.00
2022-12-03T02:51:41.897Z,0.00
2022-12-03T02:52:41.829Z,0.00
2022-12-03T02:53:41.912Z,0.00
2022-12-03T02:54:41.815Z,0.00
2022-12-03T02:55:41.820Z,0.00
2022-12-03T02:56:41.827Z,0.00
2022-12-03T02:57:41.802Z,0.00
2022-12-03T02:58:41.801Z,0.00
2022-12-03T02:59:41.783Z,0.00
2022-12-03T03:00:41.856Z,0.00
2022-12-03T03:01:41.823Z,0.00
2022-12-03T03:02:41.862Z,0.00
2022-12-03T03:03:41.726Z,0.00
2022-12-03T03:04:41.701Z,0.00
2022-12-03T03:05:41.697Z,0.00
2022-12-03T03:06:41.684Z,0.00
2022-12-03T03:07:41.838Z,0.00
2022-12-03T03:08:41.647Z,0.00
2022-12-03T03:09:41.662Z,0.00
2022-12-03T03:10:41.635Z,0.00
2022-12-03T03:11:41.688Z,0.00
2022-12-03T03:12:41.635Z,0.00
2022-12-03T03:13:41.641Z,0.00
2022-12-03T03:14:41.618Z,0.00
2022-12-03T03:15:41.608Z,0.00
2022-12-03T03:16:41.802Z,0.00
2022-12-03T03:17:41.623Z,0.00
2022-12-03T03:18:41.578Z,0.00
2022-12-03T03:19:41.595Z,0.00
2022-12-03T03:20:41.581Z,0.00
2022-12-03T03:21:41.555Z,0.00
2022-12-03T03:22:41.530Z,0.00
2022-12-03T03:23:41.665Z,0.00
2022-12-03T03:24:41.596Z,0.00
2022-12-03T03:25:41.501Z,0.00
2022-12-03T03:26:41.537Z,0.00
2022-12-03T03:27:41.508Z,0.00
2022-12-03T03:28:41.561Z,0.00
2022-12-03T03:29:41.547Z,0.00
2022-12-03T03:30:41.477Z,0.00
2022-12-03T03:31:41.862Z,0.00
2022-12-03T03:32:41.388Z,0.00
2022-12-03T03:33:41.408Z,0.00
2022-12-03T03:34:41.377Z,0.00
2022-12-03T03:35:41.378Z,0.00
2022-12-03T03:36:41.379Z,0.00
2022-12-03T03:37:41.356Z,0.00
2022-12-03T03:38:41.323Z,0.00
2022-12-03T03:39:41.355Z,0.00
2022-12-03T03:40:41.393Z,0.00
2022-12-03T03:41:41.384Z,0.00
2022-12-03T03:42:41.276Z,0.00
2022-12-03T03:43:41.349Z,0.00
2022-12-03T03:44:41.245Z,0.00
2022-12-03T03:45:41.307Z,0.00
2022-12-03T03:46:41.258Z,0.00
2022-12-03T03:47:41.261Z,0.00
2022-12-03T03:48:41.201Z,0.00
2022-12-03T03:49:41.238Z,0.00
2022-12-03T03:50:41.214Z,0.00
2022-12-03T03:51:41.189Z,0.00
2022-12-03T03:52:41.158Z,0.00
2022-12-03T03:53:41.169Z,0.00
2022-12-03T03:54:41.170Z,0.00
2022-12-03T03:55:41.141Z,0.00
2022-12-03T03:56:41.117Z,0.00
2022-12-03T03:57:41.155Z,0.00
2022-12-03T03:58:41.087Z,0.00
2022-12-03T03:59:41.137Z,0.00
2022-12-03T04:00:41.093Z,0.00
2022-12-03T04:01:41.108Z,0.00
2022-12-03T04:02:41.079Z,0.00
2022-12-03T04:03:41.114Z,0.00
2022-12-03T04:04:41.062Z,0.00
2022-12-03T04:05:41.034Z,0.00
2022-12-03T04:06:41.000Z,0.00
2022-12-03T04:07:41.084Z,0.00
2022-12-03T04:08:40.991Z,0.00
2022-12-03T04:09:41.011Z,0.00
2022-12-03T04:10:41.986Z,0.00
2022-12-03T04:11:40.973Z,0.00
2022-12-03T04:12:40.940Z,0.00
2022-12-03T04:13:40.936Z,0.00
2022-12-03T04:14:40.953Z,0.00
2022-12-03T04:15:40.917Z,0.00
2022-12-03T04:16:40.937Z,0.00
2022-12-03T04:17:40.886Z,0.00
2022-12-03T04:18:40.873Z,0.00
2022-12-03T04:19:40.909Z,0.00
2022-12-03T04:20:40.890Z,0.00
2022-12-03T04:21:40.847Z,0.00
2022-12-03T04:22:40.827Z,0.00
2022-12-03T04:23:40.827Z,0.00
2022-12-03T04:24:40.815Z,0.00
2022-12-03T04:25:40.804Z,0.00
2022-12-03T04:26:40.809Z,0.00
2022-12-03T04:27:40.781Z,0.00
2022-12-03T04:28:40.780Z,0.00
2022-12-03T04:29:40.764Z,0.00
2022-12-03T04:30:40.792Z,0.00
2022-12-03T04:31:40.774Z,0.00
2022-12-03T04:32:40.714Z,0.00
2022-12-03T04:33:40.713Z,0.00
2022-12-03T04:34:40.677Z,0.00
2022-12-03T04:35:40.717Z,0.00
2022-12-03T04:36:40.739Z,0.00
2022-12-03T04:37:40.677Z,0.00
2022-12-03T04:38:40.642Z,0.00
2022-12-03T04:39:40.654Z,0.00
2022-12-03T04:40:40.625Z,0.00
2022-12-03T04:41:40.663Z,0.00
2022-12-03T04:42:40.631Z,0.00
2022-12-03T04:43:40.596Z,0.00
2022-12-03T04:44:40.582Z,0.00
2022-12-03T04:45:40.626Z,0.00
2022-12-03T04:46:40.561Z,0.00
2022-12-03T04:47:40.596Z,0.00
2022-12-03T04:48:40.543Z,0.00
2022-12-03T04:49:40.529Z,0.00
2022-12-03T04:50:40.539Z,0.00
2022-12-03T04:51:40.516Z,0.00
2022-12-03T04:52:40.514Z,0.00
2022-12-03T04:53:45.976Z,0.00
2022-12-03T04:54:40.456Z,0.00
2022-12-03T04:55:40.472Z,0.00
2022-12-03T04:56:40.450Z,0.00
2022-12-03T04:57:40.514Z,0.00
2022-12-03T04:58:40.447Z,0.00
2022-12-03T04:59:40.419Z,0.00
2022-12-03T05:00:40.414Z,0.00
2022-12-03T05:01:40.450Z,0.00
2022-12-03T05:02:40.429Z,0.00
2022-12-03T05:03:40.368Z,0.00
2022-12-03T05:04:40.359Z,0.00
2022-12-03T05:05:40.355Z,0.00
2022-12-03T05:06:40.578Z,0.00
2022-12-03T05:07:40.424Z,0.00
2022-12-03T05:08:40.301Z,0.00
2022-12-03T05:09:40.310Z,0.00
2022-12-03T05:10:40.296Z,0.00
2022-12-03T05:11:40.317Z,0.00
2022-12-03T05:12:40.303Z,0.00
2022-12-03T05:13:40.259Z,0.00
2022-12-03T05:14:40.238Z,0.00
2022-12-03T05:15:40.234Z,0.00
2022-12-03T05:16:40.289Z,0.00
2022-12-03T05:17:40.211Z,0.00
2022-12-03T05:18:40.188Z,0.00
2022-12-03T05:19:40.272Z,0.00
2022-12-03T05:20:40.248Z,0.00
2022-12-03T05:21:40.208Z,0.00
2022-12-03T05:22:40.191Z,0.00
2022-12-03T05:23:40.149Z,0.00
2022-12-03T05:24:40.163Z,0.00
2022-12-03T05:25:40.116Z,0.00
2022-12-03T05:26:40.093Z,0.00
2022-12-03T05:27:40.102Z,0.00
2022-12-03T05:28:40.070Z,0.00
2022-12-03T05:29:40.122Z,0.00
2022-12-03T05:30:40.116Z,0.00
2022-12-03T05:31:40.069Z,0.00
2022-12-03T05:32:40.037Z,0.00
2022-12-03T05:33:44.225Z,0.00
2022-12-03T05:34:40.065Z,0.00
2022-12-03T05:35:40.000Z,0.00
2022-12-03T05:36:40.048Z,0.00
2022-12-03T05:37:40.011Z,0.00
2022-12-03T05:38:40.024Z,0.00
2022-12-03T05:39:39.957Z,0.00
2022-12-03T05:40:39.958Z,0.00
2022-12-03T05:41:39.937Z,0.00
2022-12-03T05:42:39.937Z,0.00
2022-12-03T05:43:39.952Z,0.00
2022-12-03T05:44:39.942Z,0.00
2022-12-03T05:45:39.902Z,0.00
2022-12-03T05:46:39.940Z,0.00
2022-12-03T05:47:39.861Z,0.00
2022-12-03T05:48:39.897Z,0.00
2022-12-03T05:49:39.864Z,0.00
2022-12-03T05:50:39.888Z,0.00
2022-12-03T05:51:39.817Z,0.00
2022-12-03T05:52:39.816Z,0.00
2022-12-03T05:53:39.844Z,0.00
2022-12-03T05:54:39.906Z,0.00
2022-12-03T05:55:39.835Z,0.00
2022-12-03T05:56:40.034Z,0.00
2022-12-03T05:57:39.761Z,0.00
2022-12-03T05:58:39.793Z,0.00
2022-12-03T05:59:39.728Z,0.00
2022-12-03T06:00:42.841Z,0.00
2022-12-03T06:01:39.714Z,0.00
2022-12-03T06:02:39.819Z,0.00
2022-12-03T06:03:39.920Z,0.00
2022-12-03T06:04:39.693Z,0.00
2022-12-03T06:05:40.070Z,0.00
2022-12-03T06:06:39.665Z,0.00
2022-12-03T06:07:39.698Z,0.00
2022-12-03T06:08:39.688Z,0.00
2022-12-03T06:09:39.628Z,0.00
2022-12-03T06:10:39.653Z,0.00
2022-12-03T06:11:39.669Z,0.00
2022-12-03T06:12:39.615Z,0.00
2022-12-03T06:13:39.614Z,0.00
2022-12-03T06:14:39.639Z,0.00
2022-12-03T06:15:43.764Z,0.00
2022-12-03T06:16:39.601Z,0.00
2022-12-03T06:17:39.522Z,0.00
2022-12-03T06:18:39.538Z,0.00
2022-12-03T06:19:39.666Z,0.00
2022-12-03T06:20:39.600Z,0.00
2022-12-03T06:21:39.494Z,0.00
2022-12-03T06:22:39.518Z,0.00
2022-12-03T06:23:39.491Z,0.00
2022-12-03T06:24:39.534Z,0.00
2022-12-03T06:25:39.481Z,0.00
2022-12-03T06:26:39.466Z,0.00
2022-12-03T06:27:39.426Z,0.00
2022-12-03T06:28:39.449Z,0.00
2022-12-03T06:30:38.918Z,0.00
2022-12-03T06:31:46.382Z,0.00
2022-12-03T06:32:39.858Z,0.00
2022-12-03T06:33:40.120Z,0.00
2022-12-03T06:34:39.829Z,0.00
2022-12-03T06:35:39.863Z,0.00
2022-12-03T06:36:39.812Z,0.00
2022-12-03T06:37:39.802Z,0.00
2022-12-03T06:39:31.451Z,0.00
2022-12-03T06:40:32.939Z,0.00
2022-12-03T06:41:32.405Z,0.00
2022-12-03T06:42:32.409Z,0.00
2022-12-03T06:43:32.369Z,0.00
2022-12-03T06:44:32.451Z,0.00
2022-12-03T06:45:32.348Z,0.00
2022-12-03T06:46:32.483Z,0.00
2022-12-03T06:47:32.391Z,0.00
2022-12-03T06:48:32.360Z,0.00
2022-12-03T06:49:32.370Z,0.00
2022-12-03T06:50:32.859Z,0.00
2022-12-03T06:51:32.279Z,0.00
2022-12-03T06:52:32.284Z,4.00
2022-12-03T06:53:32.284Z,4.00
2022-12-03T06:54:32.272Z,4.00
2022-12-03T06:55:32.474Z,4.00
2022-12-03T06:56:37.802Z,4.00
2022-12-03T06:57:32.233Z,4.00
2022-12-03T06:58:32.256Z,8.00
2022-12-03T06:59:32.199Z,4.00
2022-12-03T07:00:32.745Z,4.00
2022-12-03T07:01:32.893Z,8.00
2022-12-03T07:02:32.237Z,8.00
2022-12-03T07:03:32.182Z,8.00
2022-12-03T07:04:32.188Z,12.00
2022-12-03T07:05:32.124Z,12.00
2022-12-03T07:06:32.171Z,16.00
2022-12-03T07:07:32.317Z,16.00
2022-12-03T07:08:32.105Z,20.00
2022-12-03T07:09:32.274Z,24.00
2022-12-03T07:10:32.090Z,28.00
2022-12-03T07:11:32.073Z,32.00
2022-12-03T07:12:32.135Z,32.00
2022-12-03T07:13:32.371Z,32.00
2022-12-03T07:14:32.048Z,32.00
2022-12-03T07:15:32.058Z,36.00
2022-12-03T07:16:32.112Z,44.00
2022-12-03T07:17:32.027Z,48.00
2022-12-03T07:18:31.998Z,52.00
2022-12-03T07:19:33.084Z,52.00
2022-12-03T07:20:31.976Z,60.00
2022-12-03T07:21:31.987Z,68.00
2022-12-03T07:22:32.003Z,76.00
2022-12-03T07:23:31.959Z,76.00
2022-12-03T07:24:31.919Z,76.00
2022-12-03T07:25:32.004Z,84.00
2022-12-03T07:26:31.905Z,92.00
2022-12-03T07:27:32.002Z,96.00
2022-12-03T07:28:31.899Z,100.00
2022-12-03T07:29:31.862Z,108.00
2022-12-03T07:30:31.919Z,116.00
2022-12-03T07:31:31.995Z,128.00
2022-12-03T07:32:31.936Z,140.00
2022-12-03T07:33:31.859Z,148.00
2022-12-03T07:34:31.813Z,160.00
2022-12-03T07:35:31.777Z,172.00
2022-12-03T07:36:31.783Z,188.00
2022-12-03T07:37:31.842Z,208.00
2022-12-03T07:38:31.827Z,224.00
2022-12-03T07:39:31.744Z,248.00
2022-12-03T07:40:31.758Z,260.00
2022-12-03T07:41:31.766Z,272.00
2022-12-03T07:42:31.760Z,284.00
2022-12-03T07:43:31.717Z,304.00
2022-12-03T07:44:31.700Z,340.00
2022-12-03T07:45:31.679Z,392.00
2022-12-03T07:46:31.702Z,428.00
2022-12-03T07:47:31.668Z,452.00
2022-12-03T07:48:31.705Z,472.00
2022-12-03T07:49:31.634Z,488.00
2022-12-03T07:50:31.639Z,504.00
2022-12-03T07:51:32.476Z,524.00
2022-12-03T07:52:31.606Z,536.00
2022-12-03T07:53:32.346Z,540.00
2022-12-03T07:54:31.637Z,548.00
2022-12-03T07:55:31.615Z,560.00
2022-12-03T07:56:31.709Z,552.00
2022-12-03T07:57:31.558Z,532.00
2022-12-03T07:58:31.662Z,508.00
2022-12-03T07:59:31.601Z,512.00
2022-12-03T08:00:31.608Z,516.00
2022-12-03T08:01:31.554Z,540.00
2022-12-03T08:02:31.694Z,544.00
2022-12-03T08:03:31.525Z,532.00
2022-12-03T08:04:31.501Z,520.00
2022-12-03T08:05:31.490Z,540.00
2022-12-03T08:06:31.565Z,564.00
2022-12-03T08:07:31.510Z,608.00
2022-12-03T08:08:31.477Z,660.00
2022-12-03T08:09:31.464Z,640.00
2022-12-03T08:10:31.517Z,668.00
2022-12-03T08:11:31.389Z,684.00
2022-12-03T08:12:31.420Z,664.00
2022-12-03T08:13:31.422Z,644.00
2022-12-03T08:14:31.382Z,604.00
2022-12-03T08:15:37.280Z,536.00
2022-12-03T08:16:31.430Z,516.00
2022-12-03T08:17:31.326Z,532.00
2022-12-03T08:18:31.406Z,592.00
2022-12-03T08:19:31.304Z,620.00
2022-12-03T08:20:31.381Z,632.00
2022-12-03T08:21:31.340Z,672.00
2022-12-03T08:22:31.282Z,696.00
2022-12-03T08:23:31.298Z,700.00
2022-12-03T08:24:31.251Z,736.00
2022-12-03T08:25:31.256Z,792.00
2022-12-03T08:26:31.229Z,848.00
2022-12-03T08:27:31.228Z,900.00
2022-12-03T08:28:31.261Z,928.00
2022-12-03T08:29:31.217Z,904.00
2022-12-03T08:30:31.177Z,936.00
2022-12-03T08:31:33.641Z,956.00
2022-12-03T08:32:31.215Z,932.00
2022-12-03T08:33:31.132Z,964.00
2022-12-03T08:34:31.182Z,964.00
2022-12-03T08:35:31.875Z,1004.00
2022-12-03T08:36:31.126Z,1020.00
2022-12-03T08:37:31.136Z,1072.00
2022-12-03T08:38:31.172Z,1040.00
2022-12-03T08:39:31.445Z,1088.00
2022-12-03T08:40:31.087Z,1220.00
2022-12-03T08:41:31.136Z,1092.00
2022-12-03T08:42:31.050Z,1000.00
2022-12-03T08:43:31.019Z,960.00
2022-12-03T08:44:31.026Z,928.00
2022-12-03T08:45:31.089Z,1008.00
2022-12-03T08:46:31.045Z,1088.00
2022-12-03T08:47:31.113Z,1096.00
2022-12-03T08:48:31.010Z,1080.00
2022-12-03T08:49:30.955Z,1056.00
2022-12-03T08:50:31.835Z,1004.00
2022-12-03T08:51:30.935Z,1020.00
2022-12-03T08:52:30.966Z,1020.00
2022-12-03T08:53:30.944Z,1064.00
2022-12-03T08:54:30.924Z,1116.00
2022-12-03T08:55:30.925Z,1160.00
2022-12-03T08:56:30.947Z,1216.00
2022-12-03T08:57:30.873Z,1232.00
2022-12-03T08:58:30.995Z,1216.00
2022-12-03T08:59:30.874Z,1200.00
2022-12-03T09:00:30.862Z,1204.00
2022-12-03T09:01:31.449Z,1184.00
2022-12-03T09:02:30.818Z,1224.00
2022-12-03T09:03:30.851Z,1240.00
2022-12-03T09:04:30.886Z,1268.00
2022-12-03T09:05:30.794Z,1276.00
2022-12-03T09:06:30.869Z,1244.00
2022-12-03T09:07:30.814Z,1224.00
2022-12-03T09:08:30.750Z,1200.00
2022-12-03T09:09:30.735Z,1160.00
2022-12-03T09:10:30.727Z,1288.00
2022-12-03T09:11:30.740Z,1448.00
2022-12-03T09:12:30.708Z,1436.00
2022-12-03T09:13:30.686Z,1576.00
2022-12-03T09:14:30.688Z,1832.00
2022-12-03T09:15:30.673Z,1908.00
2022-12-03T09:16:30.786Z,1872.00
2022-12-03T09:17:30.691Z,1688.00
2022-12-03T09:18:30.633Z,1708.00
2022-12-03T09:19:30.685Z,1720.00
2022-12-03T09:20:30.605Z,1672.00
2022-12-03T09:21:30.682Z,1688.00
2022-12-03T09:22:30.605Z,1724.00
2022-12-03T09:23:30.587Z,1696.00
2022-12-03T09:24:30.596Z,1788.00
2022-12-03T09:25:30.575Z,1880.00
2022-12-03T09:26:30.537Z,1788.00
2022-12-03T09:27:30.619Z,1836.00
2022-12-03T09:28:30.556Z,1868.00
2022-12-03T09:29:30.569Z,1872.00
2022-12-03T09:30:30.554Z,1836.00
2022-12-03T09:31:30.630Z,1816.00
2022-12-03T09:32:30.553Z,1780.00
2022-12-03T09:33:31.390Z,1800.00
2022-12-03T09:34:30.453Z,1692.00
2022-12-03T09:35:30.452Z,1784.00
2022-12-03T09:36:30.445Z,1688.00
2022-12-03T09:37:30.494Z,1744.00
2022-12-03T09:38:30.412Z,1744.00
2022-12-03T09:39:30.410Z,1580.00
2022-12-03T09:40:30.405Z,1584.00
2022-12-03T09:41:31.384Z,1932.00
2022-12-03T09:42:30.431Z,2016.00
2022-12-03T09:43:49.355Z,1864.00
2022-12-03T09:44:31.279Z,2020.00
2022-12-03T09:45:30.489Z,1912.00
2022-12-03T09:46:30.465Z,2080.00
2022-12-03T09:47:30.325Z,2112.00
2022-12-03T09:48:30.314Z,2292.00
2022-12-03T09:49:30.344Z,2128.00
2022-12-03T09:50:30.370Z,2032.00
2022-12-03T09:51:30.309Z,2004.00
2022-12-03T09:52:30.433Z,1956.00
2022-12-03T09:53:30.287Z,2028.00
2022-12-03T09:54:30.290Z,2272.00
2022-12-03T09:55:30.396Z,2180.00
2022-12-03T09:56:30.206Z,2072.00
2022-12-03T09:57:30.278Z,2028.00
2022-12-03T09:58:34.473Z,2064.00
2022-12-03T09:59:30.265Z,2016.00
2022-12-03T10:00:31.188Z,2076.00
2022-12-03T10:01:30.777Z,2332.00
2022-12-03T10:02:30.237Z,2500.00
2022-12-03T10:03:30.289Z,2456.00
2022-12-03T10:04:30.313Z,2356.00
2022-12-03T10:05:30.186Z,2332.00
2022-12-03T10:06:30.127Z,2352.00
2022-12-03T10:07:30.223Z,2324.00
2022-12-03T10:08:32.358Z,2360.00
2022-12-03T10:09:30.129Z,2352.00
2022-12-03T10:10:30.037Z,2320.00
2022-12-03T10:11:30.052Z,2412.00
2022-12-03T10:12:30.034Z,2536.00
2022-12-03T10:13:30.029Z,2536.00
2022-12-03T10:14:30.054Z,2508.00
2022-12-03T10:15:30.042Z,2444.00
2022-12-03T10:16:30.028Z,2388.00
2022-12-03T10:17:29.985Z,2392.00
2022-12-03T10:18:30.922Z,2340.00
2022-12-03T10:19:29.991Z,2312.00
2022-12-03T10:20:29.931Z,2164.00
2022-12-03T10:21:29.967Z,2104.00
2022-12-03T10:22:29.908Z,2184.00
2022-12-03T10:23:29.905Z,1976.00
2022-12-03T10:24:29.941Z,2048.00
2022-12-03T10:25:29.896Z,2236.00
2022-12-03T10:26:29.898Z,2096.00
2022-12-03T10:27:29.860Z,2252.00
2022-12-03T10:28:29.905Z,2176.00
2022-12-03T10:29:33.720Z,2540.00
2022-12-03T10:30:29.881Z,2584.00
2022-12-03T10:31:29.926Z,2376.00
2022-12-03T10:32:29.810Z,2408.00
2022-12-03T10:33:29.813Z,2364.00
2022-12-03T10:34:29.797Z,2500.00
2022-12-03T10:35:29.811Z,2512.00
2022-12-03T10:36:29.775Z,2308.00
2022-12-03T10:37:29.760Z,2496.00
2022-12-03T10:38:29.729Z,2652.00
2022-12-03T10:39:29.752Z,2748.00
2022-12-03T10:40:29.822Z,2840.00
2022-12-03T10:41:29.743Z,2940.00
2022-12-03T10:42:29.745Z,2876.00
2022-12-03T10:43:29.685Z,2812.00
2022-12-03T10:44:31.382Z,2760.00
2022-12-03T10:45:29.768Z,2836.00
2022-12-03T10:46:29.866Z,2956.00
2022-12-03T10:47:29.884Z,2908.00
2022-12-03T10:48:36.531Z,2720.00
2022-12-03T10:49:29.668Z,2692.00
2022-12-03T10:50:29.635Z,2696.00
2022-12-03T10:51:29.624Z,2716.00
2022-12-03T10:52:29.622Z,2896.00
2022-12-03T10:53:31.224Z,3096.00
2022-12-03T10:54:29.580Z,3212.00
2022-12-03T10:55:29.708Z,3160.00
2022-12-03T10:56:29.569Z,3276.00
2022-12-03T10:57:29.545Z,3404.00
2022-12-03T10:58:29.539Z,3328.00
2022-12-03T10:59:30.354Z,3008.00
2022-12-03T11:00:29.555Z,2784.00
2022-12-03T11:01:29.602Z,2688.00
2022-12-03T11:02:30.339Z,2616.00
2022-12-03T11:03:29.564Z,2512.00
2022-12-03T11:04:29.464Z,2496.00
2022-12-03T11:05:29.444Z,2480.00
2022-12-03T11:06:29.451Z,2484.00
2022-12-03T11:07:29.511Z,2456.00
2022-12-03T11:08:29.445Z,2384.00
2022-12-03T11:09:29.482Z,2452.00
2022-12-03T11:10:29.393Z,2464.00
2022-12-03T11:11:30.385Z,2528.00
2022-12-03T11:12:29.404Z,2580.00
2022-12-03T11:13:29.445Z,2640.00
2022-12-03T11:14:29.380Z,2740.00
2022-12-03T11:15:29.414Z,2804.00
2022-12-03T11:16:29.434Z,2940.00
2022-12-03T11:17:29.324Z,2952.00
2022-12-03T11:18:29.415Z,2904.00
2022-12-03T11:19:29.355Z,2872.00
2022-12-03T11:20:30.372Z,2756.00
2022-12-03T11:21:30.271Z,2632.00
2022-12-03T11:22:29.310Z,2456.00
2022-12-03T11:23:29.260Z,2340.00
2022-12-03T11:24:29.375Z,2324.00
2022-12-03T11:25:29.233Z,2284.00
2022-12-03T11:26:29.191Z,2340.00
2022-12-03T11:27:29.229Z,2520.00
2022-12-03T11:28:30.267Z,2648.00
2022-12-03T11:29:29.246Z,2896.00
2022-12-03T11:30:29.254Z,2952.00
2022-12-03T11:31:29.347Z,2992.00
2022-12-03T11:32:31.942Z,3112.00
2022-12-03T11:33:29.227Z,3208.00
2022-12-03T11:34:29.356Z,3408.00
2022-12-03T11:35:29.439Z,3584.00
2022-12-03T11:36:54.153Z,3564.00
2022-12-03T11:37:29.928Z,3552.00
2022-12-03T11:38:29.142Z,3552.00
2022-12-03T11:39:29.152Z,3360.00
2022-12-03T11:40:30.645Z,3300.00
2022-12-03T11:41:29.077Z,3232.00
2022-12-03T11:42:29.066Z,3128.00
2022-12-03T11:43:29.023Z,3152.00
2022-12-03T11:44:29.009Z,3240.00
2022-12-03T11:45:29.044Z,3040.00
2022-12-03T11:46:29.093Z,3072.00
2022-12-03T11:47:28.963Z,3108.00
2022-12-03T11:48:29.114Z,3112.00
2022-12-03T11:49:28.957Z,3080.00
2022-12-03T11:50:29.041Z,2968.00
2022-12-03T11:51:28.989Z,2740.00
2022-12-03T11:52:28.924Z,2816.00
2022-12-03T11:53:28.908Z,2832.00
2022-12-03T11:54:28.903Z,2604.00
2022-12-03T11:55:28.935Z,2500.00
2022-12-03T11:56:28.955Z,2552.00
2022-12-03T11:57:28.860Z,2632.00
2022-12-03T11:58:28.865Z,2836.00
2022-12-03T11:59:28.834Z,2872.00
2022-12-03T12:00:28.920Z,3088.00
2022-12-03T12:01:28.947Z,3500.00
2022-12-03T12:02:28.886Z,3620.00
2022-12-03T12:03:29.082Z,3852.00
2022-12-03T12:04:29.383Z,4236.00
2022-12-03T12:05:28.799Z,4468.00
2022-12-03T12:06:28.784Z,4772.00
2022-12-03T12:07:28.895Z,5272.00
2022-12-03T12:08:28.771Z,5376.00
2022-12-03T12:09:28.758Z,5620.00
2022-12-03T12:10:28.711Z,5692.00
2022-12-03T12:11:28.811Z,5740.00
2022-12-03T12:12:28.765Z,5232.00
2022-12-03T12:13:28.688Z,4736.00
2022-12-03T12:14:28.699Z,4676.00
2022-12-03T12:15:29.375Z,4788.00
2022-12-03T12:16:28.942Z,5040.00
2022-12-03T12:17:28.728Z,5340.00
2022-12-03T12:18:29.304Z,5500.00
2022-12-03T12:19:28.638Z,5544.00
2022-12-03T12:20:28.632Z,5728.00
2022-12-03T12:21:28.596Z,5712.00
2022-12-03T12:22:28.633Z,5696.00
2022-12-03T12:23:28.589Z,5656.00
2022-12-03T12:24:28.614Z,5648.00
2022-12-03T12:25:28.577Z,5532.00
2022-12-03T12:26:28.525Z,5440.00
2022-12-03T12:27:28.700Z,5464.00
2022-12-03T12:28:28.597Z,5320.00
2022-12-03T12:29:28.510Z,5036.00
2022-12-03T12:30:28.488Z,4932.00
2022-12-03T12:31:28.513Z,4644.00
2022-12-03T12:32:28.877Z,4764.00
2022-12-03T12:33:28.522Z,4720.00
2022-12-03T12:34:28.532Z,4836.00
2022-12-03T12:35:29.319Z,4772.00
2022-12-03T12:36:28.548Z,4764.00
2022-12-03T12:37:28.438Z,4744.00
2022-12-03T12:38:28.391Z,4756.00
2022-12-03T12:39:28.448Z,4548.00
2022-12-03T12:40:28.375Z,4452.00
2022-12-03T12:41:28.362Z,4280.00
2022-12-03T12:42:28.344Z,4304.00
2022-12-03T12:43:28.380Z,4296.00
2022-12-03T12:44:28.330Z,4152.00
2022-12-03T12:45:28.419Z,4184.00
2022-12-03T12:47:28.429Z,4012.00
2022-12-03T12:48:28.328Z,3944.00
2022-12-03T12:49:28.361Z,3904.00
2022-12-03T12:50:28.314Z,3832.00